Time;durP1;ratioP1;P1;durP2;ratioP2;P2;SDS_P1;SDS_P2;PMS_P1;PMS_P2;Temp;Humidity;BMP_temperature;BMP_pressure;BME280_temperature;BME280_humidity;BME280_pressure;Samples;Min_cycle;Max_cycle;Signal;HPM_P1;HPM_P2
2022/01/17 00:00:12;;;;;;;14.85;3.30;;;6.00;99.90;;;;;;6251433;22;20077;-79
2022/01/17 00:02:38;;;;;;;18.00;3.22;;;6.00;99.90;;;;;;6251483;22;20443;-79
2022/01/17 00:05:05;;;;;;;13.95;1.88;;;6.00;99.90;;;;;;6278774;22;20011;-79
2022/01/17 00:07:31;;;;;;;17.50;2.25;;;6.00;99.90;;;;;;6251434;22;20016;-79
2022/01/17 00:09:58;;;;;;;19.23;2.88;;;6.00;99.90;;;;;;6251347;22;20016;-79
2022/01/17 00:12:25;;;;;;;20.38;2.70;;;6.00;99.90;;;;;;6251431;22;20051;-79
2022/01/17 00:14:50;;;;;;;18.17;2.50;;;6.00;99.90;;;;;;6251402;22;20023;-79
2022/01/17 00:19:45;;;;;;;15.75;3.20;;;6.00;99.90;;;;;;6251183;22;20486;-79
2022/01/17 00:22:13;;;;;;;22.73;2.92;;;5.90;99.90;;;;;;6278304;22;20439;-80
2022/01/17 00:24:38;;;;;;;24.58;3.33;;;5.90;99.90;;;;;;6278274;22;20020;-80
2022/01/17 00:27:04;;;;;;;16.70;3.13;;;5.90;99.90;;;;;;6278612;22;20012;-80
2022/01/17 00:29:30;;;;;;;13.73;2.05;;;5.90;99.90;;;;;;6251214;22;20466;-80
2022/01/17 00:31:56;;;;;;;21.58;2.40;;;5.90;99.90;;;;;;6251154;22;20016;-80
2022/01/17 00:34:22;;;;;;;19.25;4.00;;;5.90;99.90;;;;;;6251206;22;20022;-80
2022/01/17 00:36:48;;;;;;;16.17;2.47;;;5.80;99.90;;;;;;6251136;22;20078;-80
2022/01/17 00:39:14;;;;;;;21.80;3.13;;;5.80;99.90;;;;;;6251018;22;20331;-79
2022/01/17 00:41:40;;;;;;;22.10;3.72;;;5.80;99.90;;;;;;6251131;22;20016;-79
2022/01/17 00:44:06;;;;;;;22.73;3.88;;;5.90;99.90;;;;;;6250785;22;20050;-79
2022/01/17 00:46:32;;;;;;;18.33;2.83;;;5.80;99.90;;;;;;6250952;22;20074;-79
2022/01/17 00:48:58;;;;;;;19.23;2.42;;;5.90;99.90;;;;;;6250897;22;20431;-79
2022/01/17 00:51:24;;;;;;;15.88;3.10;;;5.80;99.90;;;;;;6250987;22;20054;-80
2022/01/17 00:53:50;;;;;;;21.42;3.17;;;5.90;99.90;;;;;;6251026;22;20012;-80
2022/01/17 00:56:18;;;;;;;13.50;2.55;;;5.90;99.90;;;;;;6278016;22;20019;-79
2022/01/17 00:58:43;;;;;;;18.55;2.90;;;5.90;99.90;;;;;;6278336;22;20022;-77
2022/01/17 01:01:09;;;;;;;18.83;2.83;;;5.80;99.90;;;;;;6277961;22;20398;-77
2022/01/17 01:03:35;;;;;;;15.32;3.28;;;5.90;99.90;;;;;;6278302;22;20008;-79
2022/01/17 01:06:00;;;;;;;15.30;2.78;;;5.90;99.90;;;;;;6251188;22;20026;-79
2022/01/17 01:08:26;;;;;;;17.15;2.20;;;5.80;99.90;;;;;;6251067;22;20019;-79
2022/01/17 01:10:52;;;;;;;15.63;3.17;;;5.80;99.90;;;;;;6250901;22;20364;-79
2022/01/17 01:13:21;;;;;;;21.85;3.17;;;5.80;99.90;;;;;;6250812;22;20015;-79
2022/01/17 01:16:09;;;;;;;16.63;2.40;;;5.70;99.90;;;;;;6278107;22;20022;-79
2022/01/17 01:18:49;;;;;;;18.13;3.05;;;5.70;99.90;;;;;;6250434;22;20516;-79
2022/01/17 01:29:28;;;;;;;19.77;2.30;;;5.70;99.90;;;;;;6278119;22;20123;-79
2022/01/17 01:31:59;;;;;;;21.45;2.40;;;5.70;99.90;;;;;;6278004;22;20019;-79
2022/01/17 01:34:47;;;;;;;23.17;5.18;;;5.60;99.90;;;;;;6250656;22;20033;-79
2022/01/17 01:37:13;;;;;;;17.05;3.58;;;5.50;99.90;;;;;;6250152;22;20015;-79
2022/01/17 01:39:39;;;;;;;17.27;3.15;;;5.50;99.90;;;;;;6250370;22;20436;-79
2022/01/17 01:42:16;;;;;;;17.67;2.55;;;5.50;99.90;;;;;;6277886;22;20011;-80
2022/01/17 01:44:41;;;;;;;17.20;2.55;;;5.40;99.90;;;;;;6250236;22;20047;-79
2022/01/17 01:47:07;;;;;;;16.27;3.05;;;5.50;99.90;;;;;;6250019;22;20015;-79
2022/01/17 01:49:33;;;;;;;17.90;3.17;;;5.40;99.90;;;;;;6277815;22;20019;-79
2022/01/17 01:51:59;;;;;;;11.50;1.92;;;5.50;99.90;;;;;;6250435;22;20094;-80
2022/01/17 01:54:24;;;;;;;20.52;4.20;;;5.40;99.90;;;;;;6250409;22;20374;-80
2022/01/17 01:56:50;;;;;;;18.55;3.00;;;5.40;99.90;;;;;;6250378;22;20022;-80
2022/01/17 01:59:20;;;;;;;21.98;4.30;;;5.40;99.90;;;;;;6250211;22;20015;-80
2022/01/17 02:01:46;;;;;;;22.30;3.53;;;5.40;99.90;;;;;;6250292;22;20020;-80
2022/01/17 02:04:13;;;;;;;11.70;2.22;;;5.40;99.90;;;;;;6250197;22;20016;-79
2022/01/17 02:06:39;;;;;;;16.80;2.55;;;5.40;99.90;;;;;;6250238;22;20016;-79
2022/01/17 02:09:05;;;;;;;24.25;3.25;;;5.40;99.90;;;;;;6250218;22;20020;-79
2022/01/17 02:11:35;;;;;;;19.83;3.92;;;5.40;99.90;;;;;;6250129;22;20374;-79
2022/01/17 02:14:02;;;;;;;18.83;2.40;;;5.40;99.90;;;;;;6250245;22;20020;-79
2022/01/17 02:16:28;;;;;;;16.65;1.70;;;5.40;99.90;;;;;;6250173;22;20012;-79
2022/01/17 02:18:54;;;;;;;13.82;2.50;;;5.50;99.90;;;;;;6277487;22;20039;-79
2022/01/17 02:21:32;;;;;;;16.55;2.22;;;5.50;99.90;;;;;;6250071;22;20024;-79
2022/01/17 02:23:58;;;;;;;11.75;2.83;;;5.50;99.90;;;;;;6250139;22;20061;-79
2022/01/17 02:26:25;;;;;;;14.45;2.00;;;5.50;99.90;;;;;;6250119;22;20023;-79
2022/01/17 02:28:53;;;;;;;17.55;2.20;;;5.40;99.90;;;;;;6249970;22;20090;-80
2022/01/17 02:31:20;;;;;;;16.83;2.53;;;5.40;99.90;;;;;;6249967;22;20016;-79
2022/01/17 02:33:46;;;;;;;12.23;2.13;;;5.40;99.90;;;;;;6249978;22;20391;-79
2022/01/17 02:36:12;;;;;;;15.60;2.75;;;5.40;99.90;;;;;;6249954;22;20435;-79
2022/01/17 02:38:39;;;;;;;13.35;3.00;;;5.40;99.90;;;;;;6249982;22;20098;-79
2022/01/17 02:41:05;;;;;;;17.30;2.00;;;5.40;99.90;;;;;;6250515;22;20020;-79
2022/01/17 02:43:32;;;;;;;19.67;2.90;;;5.50;99.90;;;;;;6249961;22;20026;-80
2022/01/17 02:48:30;;;;;;;14.38;2.47;;;5.60;99.90;;;;;;6249800;22;20019;-77
2022/01/17 02:50:58;;;;;;;21.50;2.05;;;5.60;99.90;;;;;;6277024;22;20331;-77
2022/01/17 02:53:25;;;;;;;11.40;2.38;;;5.60;99.90;;;;;;6249930;22;20058;-77
2022/01/17 02:55:58;;;;;;;8.88;1.33;;;5.60;99.90;;;;;;6249955;22;20019;-77
2022/01/17 02:58:27;;;;;;;12.95;1.75;;;5.60;99.90;;;;;;6249854;22;20091;-79
2022/01/17 03:00:56;;;;;;;9.95;2.35;;;5.60;99.90;;;;;;6249867;22;20063;-79
2022/01/17 03:03:25;;;;;;;20.13;3.10;;;5.60;99.90;;;;;;6249887;22;20046;-79
2022/01/17 03:05:52;;;;;;;15.27;2.00;;;5.60;99.90;;;;;;6249854;22;20016;-79
2022/01/17 03:08:20;;;;;;;16.55;2.80;;;5.60;99.90;;;;;;6249794;22;20018;-79
2022/01/17 03:10:53;;;;;;;14.55;2.42;;;5.60;99.90;;;;;;6249857;22;20016;-79
2022/01/17 03:13:31;;;;;;;16.77;2.25;;;5.60;99.90;;;;;;6249798;22;20439;-79
2022/01/17 03:15:59;;;;;;;17.48;2.28;;;5.70;99.90;;;;;;6249914;22;20016;-79
2022/01/17 03:18:28;;;;;;;14.18;2.00;;;5.70;99.90;;;;;;6249764;22;20051;-79
2022/01/17 03:20:54;;;;;;;10.88;2.30;;;5.70;99.90;;;;;;6277204;22;20027;-79
2022/01/17 03:23:19;;;;;;;12.32;2.40;;;5.80;99.90;;;;;;6249782;22;20016;-79
2022/01/17 03:25:45;;;;;;;17.52;2.83;;;5.80;99.90;;;;;;6277191;22;20016;-79
2022/01/17 03:28:11;;;;;;;15.18;2.50;;;5.80;99.90;;;;;;6277190;22;20008;-79
2022/01/17 03:30:37;;;;;;;10.93;2.10;;;5.80;99.90;;;;;;6249755;22;20041;-79
2022/01/17 03:33:07;;;;;;;13.75;3.13;;;5.90;99.90;;;;;;6249792;22;20042;-79
2022/01/17 03:35:33;;;;;;;15.20;3.05;;;5.90;99.90;;;;;;6249623;22;20016;-79
2022/01/17 03:37:59;;;;;;;18.77;2.70;;;5.90;99.90;;;;;;6249725;22;20011;-79
2022/01/17 03:40:24;;;;;;;13.20;2.50;;;5.90;99.90;;;;;;6249569;22;20074;-79
2022/01/17 03:42:50;;;;;;;16.75;3.22;;;5.90;99.90;;;;;;6276750;22;20015;-79
2022/01/17 03:45:16;;;;;;;22.15;3.17;;;5.90;99.90;;;;;;6249453;22;20095;-79
2022/01/17 03:47:44;;;;;;;19.77;3.70;;;5.80;99.90;;;;;;6249599;22;20024;-79
2022/01/17 03:50:14;;;;;;;15.18;3.42;;;5.80;99.90;;;;;;6249684;22;20011;-79
2022/01/17 03:52:40;;;;;;;13.98;2.92;;;5.80;99.90;;;;;;6249654;22;20447;-79
2022/01/17 03:55:11;;;;;;;14.05;3.33;;;5.70;99.90;;;;;;6249582;22;20443;-79
2022/01/17 03:57:37;;;;;;;17.35;3.08;;;5.70;99.90;;;;;;6276969;22;20023;-79
2022/01/17 04:00:08;;;;;;;18.25;2.67;;;5.70;99.90;;;;;;6278116;22;20020;-79
2022/01/17 04:02:34;;;;;;;16.00;3.25;;;5.60;99.90;;;;;;6251468;22;20015;-79
2022/01/17 04:05:00;;;;;;;15.50;3.63;;;5.60;99.90;;;;;;6251520;22;20386;-79
2022/01/17 04:07:25;;;;;;;16.70;2.95;;;5.70;99.90;;;;;;6278506;22;20020;-79
2022/01/17 04:09:51;;;;;;;24.50;4.05;;;5.60;99.90;;;;;;6278853;22;20008;-79
2022/01/17 04:12:17;;;;;;;14.73;3.15;;;5.70;99.90;;;;;;6278575;22;20437;-79
2022/01/17 04:14:42;;;;;;;22.90;3.50;;;5.70;99.90;;;;;;6251276;22;20150;-79
2022/01/17 04:17:08;;;;;;;17.80;3.22;;;5.80;99.90;;;;;;6278711;22;20091;-79
2022/01/17 04:19:33;;;;;;;16.33;3.72;;;5.80;99.90;;;;;;6278314;22;20098;-79
2022/01/17 04:22:00;;;;;;;22.67;3.60;;;5.80;99.90;;;;;;6251301;22;20074;-79
2022/01/17 04:24:26;;;;;;;16.73;3.60;;;5.80;99.90;;;;;;6251214;22;20073;-79
2022/01/17 04:26:52;;;;;;;20.58;5.25;;;5.80;99.90;;;;;;6251240;22;20015;-78
2022/01/17 04:29:19;;;;;;;18.50;3.67;;;5.80;99.90;;;;;;6251186;22;20023;-77
2022/01/17 04:31:45;;;;;;;24.35;4.22;;;5.80;99.90;;;;;;6251122;22;20019;-77
2022/01/17 04:34:10;;;;;;;20.67;4.15;;;5.80;99.90;;;;;;6251296;22;20095;-77
2022/01/17 04:36:36;;;;;;;14.73;3.40;;;5.90;99.90;;;;;;6251175;22;20023;-77
2022/01/17 04:39:02;;;;;;;30.60;4.18;;;5.90;99.90;;;;;;6251060;22;20118;-77
2022/01/17 04:41:37;;;;;;;14.63;3.97;;;5.90;99.90;;;;;;6251118;22;20012;-77
2022/01/17 04:46:49;;;;;;;19.17;4.05;;;6.00;99.90;;;;;;6216041;22;20016;-77
2022/01/17 04:49:15;;;;;;;16.52;3.47;;;6.00;99.90;;;;;;6251012;22;20066;-77
2022/01/17 04:51:41;;;;;;;24.48;4.40;;;6.00;99.90;;;;;;6251071;22;20015;-77
2022/01/17 04:56:51;;;;;;;21.42;3.92;;;6.00;99.90;;;;;;6250956;22;20020;-77
2022/01/17 04:59:16;;;;;;;23.02;4.00;;;6.00;99.90;;;;;;6250895;22;20082;-77
2022/01/17 05:01:42;;;;;;;30.88;6.20;;;6.00;99.90;;;;;;6250955;22;20054;-77
2022/01/17 05:04:08;;;;;;;19.95;3.47;;;6.00;99.90;;;;;;6250915;22;20087;-77
2022/01/17 05:06:33;;;;;;;25.70;4.28;;;6.00;99.90;;;;;;6250931;22;20087;-77
2022/01/17 05:09:02;;;;;;;31.33;4.82;;;6.00;99.90;;;;;;6250878;22;20382;-77
2022/01/17 05:11:30;;;;;;;22.13;4.43;;;6.00;99.90;;;;;;6250676;22;20091;-79
2022/01/17 05:13:56;;;;;;;27.83;5.40;;;6.00;99.90;;;;;;6250773;22;20023;-79
2022/01/17 05:16:29;;;;;;;20.20;4.50;;;6.00;99.90;;;;;;6251141;22;20438;-79
2022/01/17 05:21:39;;;;;;;22.17;6.53;;;6.00;99.90;;;;;;6277658;22;20400;-79
2022/01/17 05:24:05;;;;;;;21.50;4.80;;;6.10;99.90;;;;;;6277773;22;20459;-79
2022/01/17 05:26:30;;;;;;;20.52;4.68;;;6.10;99.90;;;;;;6278058;22;20091;-79
2022/01/17 05:28:56;;;;;;;18.73;4.38;;;6.00;99.90;;;;;;6250663;22;20020;-79
2022/01/17 05:31:22;;;;;;;17.25;3.55;;;6.10;99.90;;;;;;6250567;22;20016;-79
2022/01/17 05:33:47;;;;;;;27.88;4.68;;;6.10;99.90;;;;;;6250701;22;20016;-79
2022/01/17 05:36:13;;;;;;;23.60;4.47;;;6.10;99.90;;;;;;6250512;22;20012;-79
2022/01/17 05:38:38;;;;;;;22.40;5.20;;;6.00;99.90;;;;;;6251303;22;20019;-79
2022/01/17 05:41:04;;;;;;;21.00;3.85;;;6.10;99.90;;;;;;6250594;22;20062;-79
2022/01/17 05:43:30;;;;;;;19.65;3.92;;;6.10;99.90;;;;;;6250581;22;20086;-79
2022/01/17 05:45:55;;;;;;;25.35;4.20;;;6.10;99.90;;;;;;6274909;22;20027;-79
2022/01/17 05:48:21;;;;;;;26.02;5.38;;;6.10;99.90;;;;;;6277470;22;20094;-77
2022/01/17 05:50:47;;;;;;;18.00;3.95;;;6.00;99.90;;;;;;6277844;22;20442;-77
2022/01/17 05:53:14;;;;;;;24.38;4.53;;;6.10;99.90;;;;;;6275978;22;20094;-77
2022/01/17 05:55:40;;;;;;;23.95;5.07;;;6.00;99.90;;;;;;6277799;22;20083;-77
2022/01/17 05:58:06;;;;;;;34.25;5.05;;;6.00;99.90;;;;;;6275914;22;20026;-77
2022/01/17 06:00:32;;;;;;;23.60;4.95;;;6.00;99.90;;;;;;6275792;22;20098;-77
2022/01/17 06:02:57;;;;;;;25.38;4.72;;;6.00;99.90;;;;;;6275898;22;20519;-77
2022/01/17 06:05:23;;;;;;;24.42;3.65;;;6.10;99.90;;;;;;6275790;22;20012;-77
2022/01/17 06:07:49;;;;;;;23.58;4.93;;;6.10;99.90;;;;;;6275848;22;20015;-77
2022/01/17 06:10:15;;;;;;;23.88;5.38;;;6.10;99.90;;;;;;6275743;22;20011;-77
2022/01/17 06:12:41;;;;;;;32.53;6.97;;;6.20;99.90;;;;;;6275830;22;20055;-77
2022/01/17 06:15:07;;;;;;;38.08;5.25;;;6.30;99.90;;;;;;6275763;22;20051;-77
2022/01/17 06:17:32;;;;;;;29.17;5.78;;;6.30;99.90;;;;;;6275758;22;20055;-77
2022/01/17 06:19:58;;;;;;;28.88;5.97;;;6.30;99.90;;;;;;6275555;22;20012;-77
2022/01/17 06:22:24;;;;;;;32.53;5.00;;;6.30;99.90;;;;;;6275425;22;20401;-77
2022/01/17 06:24:50;;;;;;;32.88;5.13;;;6.30;99.90;;;;;;6275652;22;20450;-77
2022/01/17 06:27:16;;;;;;;36.80;6.05;;;6.40;99.90;;;;;;6275694;22;20047;-77
2022/01/17 06:29:42;;;;;;;34.35;5.10;;;6.40;99.90;;;;;;6275693;22;20012;-77
2022/01/17 06:32:08;;;;;;;26.85;4.50;;;6.40;99.90;;;;;;6275697;22;20109;-77
2022/01/17 06:34:33;;;;;;;22.60;4.35;;;6.50;99.90;;;;;;6275627;22;20019;-77
2022/01/17 06:36:59;;;;;;;30.83;4.93;;;6.50;99.90;;;;;;6275502;22;20379;-77
2022/01/17 06:39:25;;;;;;;34.45;5.50;;;6.50;99.90;;;;;;6277309;22;20066;-77
2022/01/17 06:41:51;;;;;;;35.58;5.40;;;6.50;99.90;;;;;;6275608;22;20022;-77
2022/01/17 06:44:17;;;;;;;31.50;5.63;;;6.50;99.90;;;;;;6275409;22;20459;-77
2022/01/17 06:46:43;;;;;;;26.17;4.95;;;6.60;99.90;;;;;;6275569;22;20020;-77
2022/01/17 06:49:09;;;;;;;24.05;4.05;;;6.70;99.90;;;;;;6275566;22;20012;-77
2022/01/17 06:51:35;;;;;;;25.60;5.22;;;6.70;99.90;;;;;;6275549;22;20050;-76
2022/01/17 06:54:01;;;;;;;26.50;4.43;;;6.70;99.90;;;;;;6275574;22;20090;-77
2022/01/17 06:56:27;;;;;;;28.45;3.85;;;6.70;99.90;;;;;;6275416;22;20016;-77
2022/01/17 06:58:53;;;;;;;36.28;5.07;;;6.80;99.90;;;;;;6277321;22;20011;-77
2022/01/17 07:01:20;;;;;;;22.70;5.43;;;6.80;99.90;;;;;;6277338;22;20474;-77
2022/01/17 07:03:47;;;;;;;24.02;3.58;;;6.90;99.90;;;;;;6275467;22;20016;-77
2022/01/17 07:06:13;;;;;;;35.40;5.63;;;7.00;99.90;;;;;;6277025;22;20046;-77
2022/01/17 07:08:39;;;;;;;30.58;6.68;;;7.00;99.90;;;;;;6275409;22;20447;-77
2022/01/17 07:11:05;;;;;;;35.70;5.72;;;7.00;99.90;;;;;;6277327;22;20019;-77
2022/01/17 07:13:31;;;;;;;36.58;4.78;;;7.00;99.90;;;;;;6275342;22;20070;-77
2022/01/17 07:15:56;;;;;;;18.70;3.80;;;7.00;99.90;;;;;;6277051;22;20344;-77
2022/01/17 07:18:22;;;;;;;29.00;5.18;;;7.00;99.90;;;;;;6275392;22;20047;-77
2022/01/17 07:20:48;;;;;;;27.25;3.40;;;7.00;99.90;;;;;;6275272;22;20019;-77
2022/01/17 07:23:14;;;;;;;40.40;5.82;;;7.00;99.90;;;;;;6275325;22;20008;-77
2022/01/17 07:25:40;;;;;;;23.52;4.60;;;7.00;99.90;;;;;;6275361;22;20347;-77
2022/01/17 07:28:08;;;;;;;39.25;7.63;;;7.00;99.90;;;;;;6276960;22;20019;-77
2022/01/17 07:30:34;;;;;;;25.80;5.97;;;7.00;99.90;;;;;;6275118;22;20455;-77
2022/01/17 07:33:00;;;;;;;23.75;4.28;;;7.00;99.90;;;;;;6275070;22;20031;-77
2022/01/17 07:35:26;;;;;;;30.70;4.82;;;7.10;99.90;;;;;;6276393;22;20012;-77
2022/01/17 07:37:51;;;;;;;29.85;4.55;;;7.10;99.90;;;;;;6276362;22;20018;-77
2022/01/17 07:40:17;;;;;;;30.73;4.88;;;7.10;99.90;;;;;;6276115;22;20023;-77
2022/01/17 07:42:43;;;;;;;22.40;4.25;;;7.20;99.90;;;;;;6276278;22;20086;-77
2022/01/17 07:45:12;;;;;;;27.52;5.25;;;7.20;99.90;;;;;;6276090;22;20466;-77
2022/01/17 07:48:06;;;;;;;29.95;4.57;;;7.20;99.90;;;;;;6276034;22;20030;-77
2022/01/17 07:50:30;;;;;;;31.85;5.03;;;7.30;99.90;;;;;;6277628;22;20093;-77
2022/01/17 07:52:56;;;;;;;38.30;5.53;;;7.30;99.90;;;;;;6275257;22;20090;-77
2022/01/17 07:55:22;;;;;;;24.27;3.75;;;7.40;99.90;;;;;;6276165;22;20401;-77
2022/01/17 07:57:48;;;;;;;30.70;4.35;;;7.40;99.90;;;;;;6276924;22;20012;-77
2022/01/17 08:00:22;;;;;;;35.80;5.10;;;7.40;99.90;;;;;;6277197;22;20015;-77
2022/01/17 08:02:49;;;;;;;40.72;7.13;;;7.40;99.90;;;;;;6276967;22;20043;-78
2022/01/17 08:05:16;;;;;;;23.75;4.90;;;7.50;99.90;;;;;;6276960;22;20509;-77
2022/01/17 08:07:42;;;;;;;26.95;3.95;;;7.50;99.90;;;;;;6276838;22;20018;-77
2022/01/17 08:10:12;;;;;;;29.33;3.90;;;7.50;99.90;;;;;;6276827;22;20012;-78
2022/01/17 08:12:44;;;;;;;36.33;6.03;;;7.60;99.90;;;;;;6276720;22;20025;-77
2022/01/17 08:15:11;;;;;;;28.20;5.97;;;7.60;99.90;;;;;;6275382;22;20113;-77
2022/01/17 08:17:37;;;;;;;29.90;5.65;;;7.60;99.90;;;;;;6276533;22;20086;-76
2022/01/17 08:20:04;;;;;;;23.67;5.22;;;7.60;99.90;;;;;;6276520;22;20109;-76
2022/01/17 08:22:29;;;;;;;37.47;5.57;;;7.60;99.90;;;;;;6276593;22;20020;-77
2022/01/17 08:24:55;;;;;;;26.13;4.35;;;7.70;99.90;;;;;;6276412;22;20046;-76
2022/01/17 08:27:21;;;;;;;32.35;5.85;;;7.70;99.90;;;;;;6276189;22;20017;-76
2022/01/17 08:29:47;;;;;;;31.70;5.82;;;7.70;99.90;;;;;;6276410;22;20019;-76
2022/01/17 08:32:12;;;;;;;40.30;7.50;;;7.70;99.90;;;;;;6276558;22;20012;-76
2022/01/17 08:34:38;;;;;;;36.90;6.03;;;7.70;99.90;;;;;;6276127;22;20030;-76
2022/01/17 08:37:05;;;;;;;39.83;5.63;;;7.80;99.90;;;;;;6276347;22;20347;-76
2022/01/17 08:39:31;;;;;;;38.30;7.78;;;7.70;99.90;;;;;;6277656;22;20458;-77
2022/01/17 08:41:58;;;;;;;31.90;6.82;;;7.80;99.90;;;;;;6276217;22;20030;-76
2022/01/17 08:44:24;;;;;;;38.88;6.70;;;7.80;99.90;;;;;;6275944;22;20046;-76
2022/01/17 08:46:51;;;;;;;32.63;5.40;;;7.80;99.90;;;;;;6275870;22;20347;-76
2022/01/17 08:49:17;;;;;;;25.95;6.28;;;7.80;99.90;;;;;;6276350;22;20023;-76
2022/01/17 08:51:43;;;;;;;28.10;5.18;;;7.80;99.90;;;;;;6278056;22;20026;-76
2022/01/17 08:54:09;;;;;;;38.55;5.55;;;7.80;99.90;;;;;;6276242;22;20020;-76
2022/01/17 08:56:34;;;;;;;29.42;6.65;;;7.90;99.90;;;;;;6275875;22;20058;-76
2022/01/17 08:59:02;;;;;;;34.42;4.82;;;7.90;99.90;;;;;;6277627;22;20098;-76
2022/01/17 09:01:28;;;;;;;22.33;4.18;;;7.90;99.90;;;;;;6277655;22;20335;-77
2022/01/17 09:03:54;;;;;;;38.03;5.40;;;8.00;99.90;;;;;;6276175;22;20095;-76
2022/01/17 09:06:20;;;;;;;33.17;5.93;;;7.90;99.90;;;;;;6275669;22;20058;-76
2022/01/17 09:08:46;;;;;;;30.85;5.55;;;8.00;99.90;;;;;;6276082;22;20031;-77
2022/01/17 09:11:11;;;;;;;25.67;5.53;;;8.00;99.90;;;;;;6276062;22;20440;-76
2022/01/17 09:13:37;;;;;;;31.90;7.25;;;8.00;99.90;;;;;;6275899;22;20327;-77
2022/01/17 09:16:03;;;;;;;42.88;6.53;;;8.00;99.90;;;;;;6275844;22;20020;-77
2022/01/17 09:18:29;;;;;;;33.45;4.57;;;8.00;99.90;;;;;;6274712;22;20090;-76
2022/01/17 09:20:54;;;;;;;30.38;6.55;;;8.10;99.90;;;;;;6277626;22;20011;-76
2022/01/17 09:23:21;;;;;;;22.92;5.50;;;8.00;99.90;;;;;;6275745;22;20023;-77
2022/01/17 09:25:47;;;;;;;36.35;6.22;;;8.00;99.90;;;;;;6275906;22;20016;-77
2022/01/17 09:28:13;;;;;;;32.78;6.38;;;8.10;99.90;;;;;;6275429;22;20016;-77
2022/01/17 09:30:39;;;;;;;30.92;6.22;;;8.00;99.90;;;;;;6275842;22;20444;-77
2022/01/17 09:33:06;;;;;;;36.70;6.97;;;8.10;99.90;;;;;;6277351;22;20028;-76
2022/01/17 09:35:32;;;;;;;31.98;5.38;;;8.10;99.90;;;;;;6274989;22;20020;-78
2022/01/17 09:37:58;;;;;;;34.55;5.15;;;8.10;99.90;;;;;;6274332;22;20015;-83
2022/01/17 09:40:24;;;;;;;53.80;8.43;;;8.10;99.90;;;;;;6274504;22;20042;-80
2022/01/17 09:42:50;;;;;;;32.15;5.75;;;8.10;99.90;;;;;;6277066;22;20381;-80
2022/01/17 09:45:20;;;;;;;53.72;7.65;;;8.10;99.90;;;;;;6275410;22;20091;-78
2022/01/17 09:47:46;;;;;;;21.63;5.00;;;8.10;99.90;;;;;;6277322;22;20051;-79
2022/01/17 09:50:31;;;;;;;36.08;5.75;;;8.20;99.90;;;;;;6275832;22;20095;-82
2022/01/17 09:52:58;;;;;;;34.92;4.93;;;8.20;99.90;;;;;;6277489;22;20016;-81
2022/01/17 09:55:27;;;;;;;32.60;6.90;;;8.20;99.90;;;;;;6275302;22;20047;-80
2022/01/17 09:58:05;;;;;;;55.58;8.77;;;8.10;99.90;;;;;;6276384;22;20074;-80
2022/01/17 10:00:43;;;;;;;53.45;7.55;;;8.20;99.90;;;;;;6277117;22;20150;-80
2022/01/17 10:03:11;;;;;;;32.40;6.63;;;8.30;99.90;;;;;;6275080;22;20083;-79
2022/01/17 10:05:37;;;;;;;38.35;6.15;;;8.30;99.90;;;;;;6275053;22;20127;-81
2022/01/17 10:08:10;;;;;;;39.70;6.88;;;8.30;99.90;;;;;;6275065;22;20054;-80
2022/01/17 10:10:50;;;;;;;33.47;7.38;;;8.30;99.90;;;;;;6274022;22;20455;-79
2022/01/17 10:13:26;;;;;;;26.85;6.25;;;8.30;99.90;;;;;;6274691;22;20468;-80
2022/01/17 10:16:14;;;;;;;46.45;7.57;;;8.30;99.90;;;;;;6274507;22;20343;-81
2022/01/17 10:18:41;;;;;;;41.45;5.70;;;8.30;99.90;;;;;;6274401;22;20094;-81
2022/01/17 10:21:17;;;;;;;37.90;5.70;;;8.30;99.90;;;;;;6275198;22;20023;-80
2022/01/17 10:24:11;;;;;;;29.17;5.30;;;8.20;99.90;;;;;;6275083;22;20012;-80
2022/01/17 10:37:15;;;;;;;44.67;6.63;;;8.30;99.90;;;;;;6249075;22;20320;-80
2022/01/17 10:40:03;;;;;;;41.38;6.55;;;8.30;99.90;;;;;;6249285;22;20461;-81
2022/01/17 10:42:39;;;;;;;35.60;5.90;;;8.30;99.90;;;;;;6276179;22;20447;-81
2022/01/17 10:45:28;;;;;;;49.88;8.52;;;8.40;99.90;;;;;;6248807;22;20031;-86
2022/01/17 10:47:57;;;;;;;30.40;5.63;;;8.40;99.90;;;;;;6249943;22;20019;-78
2022/01/17 10:50:28;;;;;;;42.80;8.75;;;8.40;99.90;;;;;;6276782;22;20015;-84
2022/01/17 10:52:56;;;;;;;38.13;8.10;;;8.50;99.90;;;;;;6276710;22;20015;-84
2022/01/17 10:55:37;;;;;;;32.38;10.65;;;8.50;99.90;;;;;;6249302;22;20094;-77
2022/01/17 10:58:09;;;;;;;35.08;6.28;;;8.50;99.90;;;;;;6276866;22;20435;-76
2022/01/17 11:00:38;;;;;;;43.85;6.68;;;8.60;99.90;;;;;;6276581;22;20485;-77
2022/01/17 11:03:16;;;;;;;40.17;7.47;;;8.60;99.90;;;;;;6249583;22;20057;-77
2022/01/17 11:05:44;;;;;;;47.03;7.63;;;8.60;99.90;;;;;;6249502;22;20023;-77
2022/01/17 11:08:10;;;;;;;39.55;6.57;;;8.70;99.90;;;;;;6249968;22;20016;-79
2022/01/17 11:10:42;;;;;;;33.60;7.43;;;8.70;99.90;;;;;;6251418;22;20022;-77
2022/01/17 11:13:10;;;;;;;45.33;6.07;;;8.70;99.90;;;;;;6251668;22;20031;-78
2022/01/17 11:15:38;;;;;;;46.28;6.47;;;8.70;99.90;;;;;;6251375;22;20015;-77
2022/01/17 11:18:17;;;;;;;50.58;8.10;;;8.80;99.90;;;;;;6278821;22;20095;-78
2022/01/17 11:20:43;;;;;;;40.10;7.70;;;8.80;99.90;;;;;;6251783;22;20113;-78
2022/01/17 11:23:09;;;;;;;56.10;10.75;;;8.70;99.90;;;;;;6278854;22;20074;-78
2022/01/17 11:25:37;;;;;;;39.05;9.50;;;8.70;99.90;;;;;;6251720;22;20015;-78
2022/01/17 11:28:05;;;;;;;43.83;11.40;;;8.60;99.90;;;;;;6251612;22;20343;-78
2022/01/17 11:30:34;;;;;;;44.95;7.07;;;8.60;99.90;;;;;;6251582;22;20321;-80
2022/01/17 11:33:06;;;;;;;58.60;11.15;;;8.60;99.90;;;;;;6251661;22;20024;-77
2022/01/17 11:35:37;;;;;;;41.65;7.22;;;8.60;99.90;;;;;;6251645;22;20020;-82
2022/01/17 11:38:04;;;;;;;46.80;9.98;;;8.60;99.90;;;;;;6251789;22;20019;-78
2022/01/17 11:40:35;;;;;;;48.05;10.02;;;8.60;99.90;;;;;;6251537;22;20019;-78
2022/01/17 11:43:35;;;;;;;38.83;6.25;;;8.70;99.90;;;;;;6251505;22;20012;-78
2022/01/17 11:46:26;;;;;;;41.58;9.30;;;8.80;99.90;;;;;;6251748;22;20452;-78
2022/01/17 11:48:58;;;;;;;46.58;7.40;;;8.70;99.90;;;;;;6251529;22;20024;-78
2022/01/17 11:51:34;;;;;;;49.17;7.63;;;8.80;99.90;;;;;;6251326;22;20023;-80
2022/01/17 11:54:09;;;;;;;74.20;12.48;;;8.80;99.90;;;;;;6251526;22;20019;-79
2022/01/17 11:56:38;;;;;;;42.92;9.05;;;8.80;99.90;;;;;;6251470;22;20016;-83
2022/01/17 11:59:34;;;;;;;55.15;9.95;;;8.80;99.90;;;;;;6251309;22;20012;-82
2022/01/17 12:02:36;;;;;;;48.60;7.85;;;8.80;99.90;;;;;;6251396;22;20027;-82
2022/01/17 12:05:08;;;;;;;58.08;10.00;;;8.90;99.90;;;;;;6251406;22;20069;-80
2022/01/17 12:07:50;;;;;;;44.47;9.77;;;8.90;99.90;;;;;;6278453;22;20461;-80
2022/01/17 12:10:23;;;;;;;50.17;8.20;;;8.90;99.90;;;;;;6278472;22;20031;-79
2022/01/17 12:13:07;;;;;;;;;;;8.80;99.90;;;;;;6251875;22;20020;-80
2022/01/17 12:15:54;;;;;;;;;;;8.80;99.90;;;;;;6251912;22;19911;-81
2022/01/17 12:18:31;;;;;;;42.20;7.03;;;8.70;99.90;;;;;;6231020;22;19915;-83
2022/01/17 12:21:20;;;;;;;45.05;8.75;;;8.70;99.90;;;;;;6250636;22;20031;-87
2022/01/17 12:23:46;;;;;;;48.78;8.45;;;8.80;99.90;;;;;;6250956;22;20015;-87
2022/01/17 12:26:32;;;;;;;43.75;8.05;;;8.70;99.90;;;;;;6278276;22;20404;-81
2022/01/17 12:29:00;;;;;;;52.05;8.63;;;8.70;99.90;;;;;;6278409;22;20011;-93
2022/01/17 12:31:45;;;;;;;56.85;8.43;;;8.70;99.90;;;;;;6275567;22;20052;-80
2022/01/17 12:34:24;;;;;;;56.00;10.75;;;8.70;99.90;;;;;;6276184;22;20074;-80
2022/01/17 12:36:58;;;;;;;61.33;10.25;;;8.60;99.90;;;;;;6250152;22;20016;-82
2022/01/17 12:39:27;;;;;;;55.35;8.27;;;8.60;99.90;;;;;;6250725;22;20027;-83
2022/01/17 12:42:02;;;;;;;50.35;9.95;;;8.60;99.90;;;;;;6250718;22;20012;-82
2022/01/17 12:44:30;;;;;;;63.78;9.52;;;8.60;99.90;;;;;;6250553;22;20094;-81
2022/01/17 12:46:58;;;;;;;51.85;8.95;;;8.70;99.90;;;;;;6276871;22;20011;-84
2022/01/17 12:49:25;;;;;;;50.35;9.27;;;8.70;99.90;;;;;;6250012;22;20015;-85
2022/01/17 12:52:16;;;;;;;46.20;9.25;;;8.70;99.90;;;;;;6250448;22;20094;-89
2022/01/17 12:55:11;;;;;;;56.40;9.52;;;8.70;99.90;;;;;;6256531;22;20016;-94
2022/01/17 12:57:42;;;;;;;56.90;9.25;;;8.70;99.90;;;;;;6277881;22;20015;-86
2022/01/17 13:00:27;;;;;;;52.45;9.57;;;8.70;99.90;;;;;;6251122;22;20453;-93
2022/01/17 13:02:55;;;;;;;55.63;9.63;;;8.70;99.90;;;;;;6249122;22;20011;-83
2022/01/17 13:05:27;;;;;;;56.63;10.00;;;8.60;99.90;;;;;;6236977;22;20091;-91
2022/01/17 13:07:53;;;;;;;56.92;9.18;;;8.60;99.90;;;;;;6247105;23;20074;-83
2022/01/17 13:10:20;;;;;;;47.53;8.38;;;8.70;99.90;;;;;;6220166;23;20096;-83
2022/01/17 13:12:58;;;;;;;53.17;9.57;;;8.60;99.90;;;;;;6221005;23;20019;-83
2022/01/17 13:15:24;;;;;;;49.75;7.63;;;8.60;99.90;;;;;;6220255;23;20054;-83
2022/01/17 13:17:52;;;;;;;53.58;8.73;;;8.70;99.90;;;;;;6219877;23;20452;-82
2022/01/17 13:20:19;;;;;;;56.45;12.10;;;8.70;99.90;;;;;;6220111;23;20047;-83
2022/01/17 13:25:40;;;;;;;53.83;10.50;;;8.60;99.90;;;;;;6200690;23;20391;-82
2022/01/17 13:28:06;;;;;;;57.10;9.50;;;8.60;99.90;;;;;;6246572;23;20016;-82
2022/01/17 13:30:34;;;;;;;44.58;9.30;;;8.70;99.90;;;;;;6246485;23;20016;-82